sensor_id;sensor_type;location;lat;lon;timestamp;P1;durP1;ratioP1;P2;durP2;ratioP2
19828;SDS011;10075;50.924;4.396;2023-03-21T00:02:05;13.20;;;5.28;;
19828;SDS011;10075;50.924;4.396;2023-03-21T00:04:32;11.57;;;5.10;;
19828;SDS011;10075;50.924;4.396;2023-03-21T00:07:00;12.77;;;5.50;;
19828;SDS011;10075;50.924;4.396;2023-03-21T00:09:27;11.23;;;5.75;;
19828;SDS011;10075;50.924;4.396;2023-03-21T00:11:55;13.68;;;5.57;;
19828;SDS011;10075;50.924;4.396;2023-03-21T00:14:25;17.05;;;6.00;;
19828;SDS011;10075;50.924;4.396;2023-03-21T00:16:55;11.60;;;5.18;;
19828;SDS011;10075;50.924;4.396;2023-03-21T00:19:22;11.98;;;5.10;;
19828;SDS011;10075;50.924;4.396;2023-03-21T00:21:50;11.15;;;5.28;;
19828;SDS011;10075;50.924;4.396;2023-03-21T00:24:21;14.77;;;5.93;;
19828;SDS011;10075;50.924;4.396;2023-03-21T00:26:48;15.45;;;5.60;;
19828;SDS011;10075;50.924;4.396;2023-03-21T00:29:16;11.18;;;4.97;;
19828;SDS011;10075;50.924;4.396;2023-03-21T00:31:43;8.67;;;4.70;;
19828;SDS011;10075;50.924;4.396;2023-03-21T00:34:10;11.43;;;5.10;;
19828;SDS011;10075;50.924;4.396;2023-03-21T00:36:37;13.40;;;5.55;;
19828;SDS011;10075;50.924;4.396;2023-03-21T00:39:04;11.00;;;4.97;;
19828;SDS011;10075;50.924;4.396;2023-03-21T00:41:33;13.30;;;5.70;;
19828;SDS011;10075;50.924;4.396;2023-03-21T00:44:00;11.80;;;4.70;;
19828;SDS011;10075;50.924;4.396;2023-03-21T00:46:28;12.37;;;4.90;;
19828;SDS011;10075;50.924;4.396;2023-03-21T00:48:55;10.85;;;4.25;;
19828;SDS011;10075;50.924;4.396;2023-03-21T00:51:22;13.97;;;4.97;;
19828;SDS011;10075;50.924;4.396;2023-03-21T00:53:52;14.50;;;4.97;;
19828;SDS011;10075;50.924;4.396;2023-03-21T00:56:19;11.50;;;4.87;;
19828;SDS011;10075;50.924;4.396;2023-03-21T00:58:48;14.70;;;5.57;;
19828;SDS011;10075;50.924;4.396;2023-03-21T01:01:16;11.60;;;5.57;;
19828;SDS011;10075;50.924;4.396;2023-03-21T01:03:43;18.47;;;5.37;;
19828;SDS011;10075;50.924;4.396;2023-03-21T01:06:15;15.20;;;5.37;;
19828;SDS011;10075;50.924;4.396;2023-03-21T01:08:44;16.53;;;5.73;;
19828;SDS011;10075;50.924;4.396;2023-03-21T01:11:14;13.80;;;5.30;;
19828;SDS011;10075;50.924;4.396;2023-03-21T01:13:43;14.48;;;6.03;;
19828;SDS011;10075;50.924;4.396;2023-03-21T01:16:11;12.50;;;5.43;;
19828;SDS011;10075;50.924;4.396;2023-03-21T01:18:39;12.37;;;4.77;;
19828;SDS011;10075;50.924;4.396;2023-03-21T01:21:07;12.77;;;5.50;;
19828;SDS011;10075;50.924;4.396;2023-03-21T01:23:36;10.35;;;4.82;;
19828;SDS011;10075;50.924;4.396;2023-03-21T01:26:05;8.70;;;5.00;;
19828;SDS011;10075;50.924;4.396;2023-03-21T01:28:33;11.33;;;4.90;;
19828;SDS011;10075;50.924;4.396;2023-03-21T01:31:01;11.00;;;5.37;;
19828;SDS011;10075;50.924;4.396;2023-03-21T01:33:30;13.30;;;5.65;;
19828;SDS011;10075;50.924;4.396;2023-03-21T01:35:58;8.45;;;5.28;;
19828;SDS011;10075;50.924;4.396;2023-03-21T01:38:25;9.32;;;4.68;;
19828;SDS011;10075;50.924;4.396;2023-03-21T01:40:52;16.10;;;6.03;;
19828;SDS011;10075;50.924;4.396;2023-03-21T01:43:23;16.70;;;4.88;;
19828;SDS011;10075;50.924;4.396;2023-03-21T01:49:05;9.43;;;4.70;;
19828;SDS011;10075;50.924;4.396;2023-03-21T01:51:37;17.55;;;6.20;;
19828;SDS011;10075;50.924;4.396;2023-03-21T01:54:08;14.60;;;5.22;;
19828;SDS011;10075;50.924;4.396;2023-03-21T01:56:40;10.83;;;5.47;;
19828;SDS011;10075;50.924;4.396;2023-03-21T01:59:11;12.00;;;4.88;;
19828;SDS011;10075;50.924;4.396;2023-03-21T02:01:45;9.90;;;5.10;;
19828;SDS011;10075;50.924;4.396;2023-03-21T02:04:15;12.65;;;5.05;;
19828;SDS011;10075;50.924;4.396;2023-03-21T02:06:47;19.33;;;5.38;;
19828;SDS011;10075;50.924;4.396;2023-03-21T02:09:20;17.58;;;5.93;;
19828;SDS011;10075;50.924;4.396;2023-03-21T02:11:51;18.95;;;5.97;;
19828;SDS011;10075;50.924;4.396;2023-03-21T02:14:20;16.02;;;5.60;;
19828;SDS011;10075;50.924;4.396;2023-03-21T02:16:49;16.48;;;6.43;;
19828;SDS011;10075;50.924;4.396;2023-03-21T02:28:31;16.03;;;5.87;;
19828;SDS011;10075;50.924;4.396;2023-03-21T02:31:11;16.70;;;5.90;;
19828;SDS011;10075;50.924;4.396;2023-03-21T02:37:03;13.82;;;5.50;;
19828;SDS011;10075;50.924;4.396;2023-03-21T02:39:39;13.00;;;5.55;;
19828;SDS011;10075;50.924;4.396;2023-03-21T02:42:15;12.87;;;5.63;;
19828;SDS011;10075;50.924;4.396;2023-03-21T02:44:48;16.92;;;6.18;;
19828;SDS011;10075;50.924;4.396;2023-03-21T02:47:23;15.75;;;5.57;;
19828;SDS011;10075;50.924;4.396;2023-03-21T02:49:54;15.47;;;5.37;;
19828;SDS011;10075;50.924;4.396;2023-03-21T02:52:27;13.68;;;5.30;;
19828;SDS011;10075;50.924;4.396;2023-03-21T02:54:57;12.88;;;4.88;;
19828;SDS011;10075;50.924;4.396;2023-03-21T02:57:29;9.80;;;4.83;;
19828;SDS011;10075;50.924;4.396;2023-03-21T02:59:56;9.40;;;5.03;;
19828;SDS011;10075;50.924;4.396;2023-03-21T03:02:24;15.23;;;4.93;;
19828;SDS011;10075;50.924;4.396;2023-03-21T03:04:53;11.83;;;4.73;;
19828;SDS011;10075;50.924;4.396;2023-03-21T03:07:26;13.00;;;5.03;;
19828;SDS011;10075;50.924;4.396;2023-03-21T03:10:10;16.75;;;4.82;;
19828;SDS011;10075;50.924;4.396;2023-03-21T03:12:48;16.85;;;4.50;;
19828;SDS011;10075;50.924;4.396;2023-03-21T03:15:32;12.73;;;4.80;;
19828;SDS011;10075;50.924;4.396;2023-03-21T03:18:06;13.57;;;4.53;;
19828;SDS011;10075;50.924;4.396;2023-03-21T03:20:41;9.10;;;4.30;;
19828;SDS011;10075;50.924;4.396;2023-03-21T03:23:18;12.60;;;4.60;;
19828;SDS011;10075;50.924;4.396;2023-03-21T03:25:52;14.30;;;4.65;;
19828;SDS011;10075;50.924;4.396;2023-03-21T03:28:24;9.30;;;4.28;;
19828;SDS011;10075;50.924;4.396;2023-03-21T03:30:54;12.70;;;4.60;;
19828;SDS011;10075;50.924;4.396;2023-03-21T03:33:22;13.80;;;4.82;;
19828;SDS011;10075;50.924;4.396;2023-03-21T03:35:51;11.90;;;4.90;;
19828;SDS011;10075;50.924;4.396;2023-03-21T03:38:22;13.07;;;4.70;;
19828;SDS011;10075;50.924;4.396;2023-03-21T03:40:52;11.55;;;4.43;;
19828;SDS011;10075;50.924;4.396;2023-03-21T03:43:25;12.13;;;4.80;;
19828;SDS011;10075;50.924;4.396;2023-03-21T03:46:00;14.25;;;4.93;;
19828;SDS011;10075;50.924;4.396;2023-03-21T03:48:34;14.65;;;3.90;;
19828;SDS011;10075;50.924;4.396;2023-03-21T03:51:11;12.43;;;3.83;;
19828;SDS011;10075;50.924;4.396;2023-03-21T03:53:43;12.23;;;3.93;;
19828;SDS011;10075;50.924;4.396;2023-03-21T03:56:16;13.27;;;4.10;;
19828;SDS011;10075;50.924;4.396;2023-03-21T03:58:43;10.55;;;3.95;;
19828;SDS011;10075;50.924;4.396;2023-03-21T04:01:10;11.02;;;3.88;;
19828;SDS011;10075;50.924;4.396;2023-03-21T04:03:38;13.32;;;4.68;;
19828;SDS011;10075;50.924;4.396;2023-03-21T04:06:08;9.93;;;4.17;;
19828;SDS011;10075;50.924;4.396;2023-03-21T04:08:35;9.88;;;3.92;;
19828;SDS011;10075;50.924;4.396;2023-03-21T04:11:04;11.65;;;4.32;;
19828;SDS011;10075;50.924;4.396;2023-03-21T04:13:32;12.35;;;4.63;;
19828;SDS011;10075;50.924;4.396;2023-03-21T04:15:59;11.57;;;3.78;;
19828;SDS011;10075;50.924;4.396;2023-03-21T04:18:26;14.80;;;4.90;;
19828;SDS011;10075;50.924;4.396;2023-03-21T04:20:53;11.68;;;4.40;;
19828;SDS011;10075;50.924;4.396;2023-03-21T04:23:21;11.95;;;4.05;;
19828;SDS011;10075;50.924;4.396;2023-03-21T04:25:48;12.40;;;4.53;;
19828;SDS011;10075;50.924;4.396;2023-03-21T04:28:17;12.43;;;4.53;;
19828;SDS011;10075;50.924;4.396;2023-03-21T04:30:46;13.80;;;4.97;;
19828;SDS011;10075;50.924;4.396;2023-03-21T04:33:13;13.32;;;4.50;;
19828;SDS011;10075;50.924;4.396;2023-03-21T04:35:40;11.52;;;5.07;;
19828;SDS011;10075;50.924;4.396;2023-03-21T04:38:09;14.30;;;5.20;;
19828;SDS011;10075;50.924;4.396;2023-03-21T04:40:37;11.07;;;4.45;;
19828;SDS011;10075;50.924;4.396;2023-03-21T04:43:04;13.98;;;5.30;;
19828;SDS011;10075;50.924;4.396;2023-03-21T04:45:32;14.00;;;6.05;;
19828;SDS011;10075;50.924;4.396;2023-03-21T04:47:59;14.93;;;5.22;;
19828;SDS011;10075;50.924;4.396;2023-03-21T04:50:26;14.90;;;6.13;;
19828;SDS011;10075;50.924;4.396;2023-03-21T04:52:53;16.27;;;6.20;;
19828;SDS011;10075;50.924;4.396;2023-03-21T04:55:20;15.00;;;5.38;;
19828;SDS011;10075;50.924;4.396;2023-03-21T04:57:49;11.30;;;5.30;;
19828;SDS011;10075;50.924;4.396;2023-03-21T05:00:16;13.70;;;5.50;;
19828;SDS011;10075;50.924;4.396;2023-03-21T05:02:44;15.18;;;6.00;;
19828;SDS011;10075;50.924;4.396;2023-03-21T05:05:12;16.02;;;6.47;;
19828;SDS011;10075;50.924;4.396;2023-03-21T05:07:39;18.10;;;6.60;;
19828;SDS011;10075;50.924;4.396;2023-03-21T05:10:08;15.10;;;6.20;;
19828;SDS011;10075;50.924;4.396;2023-03-21T05:12:37;20.65;;;6.35;;
19828;SDS011;10075;50.924;4.396;2023-03-21T05:15:04;11.82;;;6.00;;
19828;SDS011;10075;50.924;4.396;2023-03-21T05:17:32;13.93;;;5.93;;
19828;SDS011;10075;50.924;4.396;2023-03-21T05:20:00;16.02;;;6.82;;
19828;SDS011;10075;50.924;4.396;2023-03-21T05:22:28;17.67;;;6.68;;
19828;SDS011;10075;50.924;4.396;2023-03-21T05:25:05;15.52;;;5.63;;
19828;SDS011;10075;50.924;4.396;2023-03-21T05:27:33;14.27;;;6.18;;
19828;SDS011;10075;50.924;4.396;2023-03-21T05:30:00;14.85;;;6.95;;
19828;SDS011;10075;50.924;4.396;2023-03-21T05:32:29;19.42;;;6.20;;
19828;SDS011;10075;50.924;4.396;2023-03-21T05:34:56;13.40;;;6.25;;
19828;SDS011;10075;50.924;4.396;2023-03-21T05:37:24;17.00;;;6.40;;
19828;SDS011;10075;50.924;4.396;2023-03-21T05:39:51;14.73;;;6.65;;
19828;SDS011;10075;50.924;4.396;2023-03-21T05:42:18;13.43;;;6.27;;
19828;SDS011;10075;50.924;4.396;2023-03-21T05:44:46;13.57;;;5.88;;
19828;SDS011;10075;50.924;4.396;2023-03-21T05:47:13;17.30;;;7.13;;
19828;SDS011;10075;50.924;4.396;2023-03-21T05:49:41;18.08;;;7.32;;
19828;SDS011;10075;50.924;4.396;2023-03-21T05:52:08;17.25;;;6.80;;
19828;SDS011;10075;50.924;4.396;2023-03-21T05:54:37;13.70;;;6.53;;
19828;SDS011;10075;50.924;4.396;2023-03-21T05:57:04;15.07;;;6.88;;
19828;SDS011;10075;50.924;4.396;2023-03-21T05:59:31;16.23;;;6.93;;
19828;SDS011;10075;50.924;4.396;2023-03-21T06:01:59;18.77;;;6.60;;
19828;SDS011;10075;50.924;4.396;2023-03-21T06:04:26;11.60;;;5.88;;
19828;SDS011;10075;50.924;4.396;2023-03-21T06:06:53;16.55;;;6.50;;
19828;SDS011;10075;50.924;4.396;2023-03-21T06:09:20;16.52;;;6.75;;
19828;SDS011;10075;50.924;4.396;2023-03-21T06:11:50;18.08;;;7.55;;
19828;SDS011;10075;50.924;4.396;2023-03-21T06:14:19;15.57;;;7.00;;
19828;SDS011;10075;50.924;4.396;2023-03-21T06:16:47;18.83;;;8.07;;
19828;SDS011;10075;50.924;4.396;2023-03-21T06:19:14;16.20;;;6.45;;
19828;SDS011;10075;50.924;4.396;2023-03-21T06:21:42;14.88;;;7.03;;
19828;SDS011;10075;50.924;4.396;2023-03-21T06:24:09;15.57;;;6.90;;
19828;SDS011;10075;50.924;4.396;2023-03-21T06:26:36;14.13;;;6.77;;
19828;SDS011;10075;50.924;4.396;2023-03-21T06:29:04;15.82;;;7.13;;
19828;SDS011;10075;50.924;4.396;2023-03-21T06:31:31;19.03;;;7.17;;
19828;SDS011;10075;50.924;4.396;2023-03-21T06:33:58;16.50;;;6.77;;
19828;SDS011;10075;50.924;4.396;2023-03-21T06:36:25;14.27;;;7.07;;
19828;SDS011;10075;50.924;4.396;2023-03-21T06:38:52;16.00;;;6.72;;
19828;SDS011;10075;50.924;4.396;2023-03-21T06:41:19;16.40;;;7.37;;
19828;SDS011;10075;50.924;4.396;2023-03-21T06:43:47;19.40;;;7.37;;
19828;SDS011;10075;50.924;4.396;2023-03-21T06:46:15;16.60;;;7.57;;
19828;SDS011;10075;50.924;4.396;2023-03-21T06:48:42;17.63;;;7.47;;
19828;SDS011;10075;50.924;4.396;2023-03-21T06:51:10;13.98;;;8.00;;
19828;SDS011;10075;50.924;4.396;2023-03-21T06:53:37;18.93;;;6.93;;
19828;SDS011;10075;50.924;4.396;2023-03-21T06:56:06;15.05;;;6.43;;
19828;SDS011;10075;50.924;4.396;2023-03-21T06:58:33;12.73;;;6.40;;
19828;SDS011;10075;50.924;4.396;2023-03-21T07:01:01;15.90;;;6.43;;
19828;SDS011;10075;50.924;4.396;2023-03-21T07:03:30;14.53;;;6.90;;
19828;SDS011;10075;50.924;4.396;2023-03-21T07:05:58;13.15;;;6.85;;
19828;SDS011;10075;50.924;4.396;2023-03-21T07:08:28;14.60;;;6.55;;
19828;SDS011;10075;50.924;4.396;2023-03-21T07:10:55;17.63;;;7.93;;
19828;SDS011;10075;50.924;4.396;2023-03-21T07:13:22;13.00;;;7.35;;
19828;SDS011;10075;50.924;4.396;2023-03-21T07:15:51;13.90;;;7.00;;
19828;SDS011;10075;50.924;4.396;2023-03-21T07:18:18;11.90;;;6.45;;
19828;SDS011;10075;50.924;4.396;2023-03-21T07:20:47;14.27;;;7.10;;
19828;SDS011;10075;50.924;4.396;2023-03-21T07:23:16;12.15;;;5.43;;
19828;SDS011;10075;50.924;4.396;2023-03-21T07:25:43;12.43;;;4.88;;
19828;SDS011;10075;50.924;4.396;2023-03-21T07:28:13;11.07;;;4.82;;
19828;SDS011;10075;50.924;4.396;2023-03-21T07:30:40;9.32;;;4.65;;
19828;SDS011;10075;50.924;4.396;2023-03-21T07:33:07;11.63;;;5.15;;
19828;SDS011;10075;50.924;4.396;2023-03-21T07:35:34;12.63;;;4.10;;
19828;SDS011;10075;50.924;4.396;2023-03-21T07:38:03;7.67;;;4.13;;
19828;SDS011;10075;50.924;4.396;2023-03-21T07:40:30;10.93;;;4.40;;
19828;SDS011;10075;50.924;4.396;2023-03-21T07:42:58;12.40;;;4.07;;
19828;SDS011;10075;50.924;4.396;2023-03-21T07:45:25;11.23;;;3.95;;
19828;SDS011;10075;50.924;4.396;2023-03-21T07:47:52;13.23;;;4.20;;
19828;SDS011;10075;50.924;4.396;2023-03-21T07:50:19;7.27;;;3.17;;
19828;SDS011;10075;50.924;4.396;2023-03-21T07:52:47;10.40;;;4.23;;
19828;SDS011;10075;50.924;4.396;2023-03-21T07:55:15;8.40;;;3.63;;
19828;SDS011;10075;50.924;4.396;2023-03-21T07:57:43;7.33;;;3.70;;
19828;SDS011;10075;50.924;4.396;2023-03-21T08:00:11;7.47;;;3.67;;
19828;SDS011;10075;50.924;4.396;2023-03-21T08:02:47;6.67;;;3.63;;
19828;SDS011;10075;50.924;4.396;2023-03-21T08:05:18;9.65;;;3.40;;
19828;SDS011;10075;50.924;4.396;2023-03-21T08:07:46;8.18;;;4.22;;
19828;SDS011;10075;50.924;4.396;2023-03-21T08:10:13;10.47;;;4.43;;
19828;SDS011;10075;50.924;4.396;2023-03-21T08:12:42;9.10;;;3.80;;
19828;SDS011;10075;50.924;4.396;2023-03-21T08:15:10;9.73;;;3.37;;
19828;SDS011;10075;50.924;4.396;2023-03-21T08:17:38;11.93;;;4.13;;
19828;SDS011;10075;50.924;4.396;2023-03-21T08:20:06;12.30;;;4.30;;
19828;SDS011;10075;50.924;4.396;2023-03-21T08:22:36;9.17;;;3.50;;
19828;SDS011;10075;50.924;4.396;2023-03-21T08:25:03;7.25;;;3.60;;
19828;SDS011;10075;50.924;4.396;2023-03-21T08:27:32;12.57;;;4.57;;
19828;SDS011;10075;50.924;4.396;2023-03-21T08:30:01;8.75;;;3.25;;
19828;SDS011;10075;50.924;4.396;2023-03-21T08:32:29;6.90;;;3.17;;
19828;SDS011;10075;50.924;4.396;2023-03-21T08:34:57;8.35;;;3.90;;
19828;SDS011;10075;50.924;4.396;2023-03-21T08:37:25;11.67;;;3.33;;
19828;SDS011;10075;50.924;4.396;2023-03-21T08:39:52;10.13;;;3.70;;
19828;SDS011;10075;50.924;4.396;2023-03-21T08:42:19;9.73;;;3.60;;
19828;SDS011;10075;50.924;4.396;2023-03-21T08:44:47;11.55;;;3.78;;
19828;SDS011;10075;50.924;4.396;2023-03-21T08:47:16;13.00;;;4.00;;
19828;SDS011;10075;50.924;4.396;2023-03-21T08:49:43;12.13;;;3.72;;
19828;SDS011;10075;50.924;4.396;2023-03-21T08:52:11;10.25;;;3.90;;
19828;SDS011;10075;50.924;4.396;2023-03-21T08:54:38;11.93;;;3.80;;
19828;SDS011;10075;50.924;4.396;2023-03-21T08:57:06;8.23;;;3.42;;
19828;SDS011;10075;50.924;4.396;2023-03-21T08:59:35;10.80;;;4.57;;
19828;SDS011;10075;50.924;4.396;2023-03-21T09:02:02;15.45;;;4.72;;
19828;SDS011;10075;50.924;4.396;2023-03-21T09:04:31;13.45;;;3.92;;
19828;SDS011;10075;50.924;4.396;2023-03-21T09:06:59;9.23;;;4.05;;
19828;SDS011;10075;50.924;4.396;2023-03-21T09:09:29;8.02;;;3.80;;
19828;SDS011;10075;50.924;4.396;2023-03-21T09:11:56;10.25;;;3.80;;
19828;SDS011;10075;50.924;4.396;2023-03-21T09:14:23;10.95;;;3.20;;
19828;SDS011;10075;50.924;4.396;2023-03-21T09:16:50;7.93;;;3.40;;
19828;SDS011;10075;50.924;4.396;2023-03-21T09:19:17;9.67;;;3.20;;
19828;SDS011;10075;50.924;4.396;2023-03-21T09:21:46;10.18;;;3.50;;
19828;SDS011;10075;50.924;4.396;2023-03-21T09:24:13;10.25;;;4.25;;
19828;SDS011;10075;50.924;4.396;2023-03-21T09:26:42;7.32;;;3.42;;
19828;SDS011;10075;50.924;4.396;2023-03-21T09:29:09;10.73;;;3.55;;
19828;SDS011;10075;50.924;4.396;2023-03-21T09:31:36;9.63;;;3.35;;
19828;SDS011;10075;50.924;4.396;2023-03-21T09:34:04;6.40;;;3.15;;
19828;SDS011;10075;50.924;4.396;2023-03-21T09:36:31;8.55;;;3.28;;
19828;SDS011;10075;50.924;4.396;2023-03-21T09:39:01;9.95;;;3.20;;
19828;SDS011;10075;50.924;4.396;2023-03-21T09:41:31;9.20;;;2.80;;
19828;SDS011;10075;50.924;4.396;2023-03-21T09:44:13;12.32;;;3.60;;
19828;SDS011;10075;50.924;4.396;2023-03-21T09:46:53;7.97;;;3.13;;
19828;SDS011;10075;50.924;4.396;2023-03-21T09:49:23;11.70;;;3.50;;
19828;SDS011;10075;50.924;4.396;2023-03-21T09:51:57;6.32;;;3.13;;
19828;SDS011;10075;50.924;4.396;2023-03-21T09:54:32;6.38;;;2.95;;
19828;SDS011;10075;50.924;4.396;2023-03-21T09:57:03;10.50;;;3.60;;
19828;SDS011;10075;50.924;4.396;2023-03-21T09:59:39;9.80;;;2.90;;
19828;SDS011;10075;50.924;4.396;2023-03-21T10:02:13;7.05;;;2.65;;
19828;SDS011;10075;50.924;4.396;2023-03-21T10:04:56;10.27;;;3.45;;
19828;SDS011;10075;50.924;4.396;2023-03-21T10:07:24;11.35;;;3.45;;
19828;SDS011;10075;50.924;4.396;2023-03-21T10:09:56;10.63;;;3.40;;
19828;SDS011;10075;50.924;4.396;2023-03-21T10:12:24;11.25;;;3.40;;
19828;SDS011;10075;50.924;4.396;2023-03-21T10:14:55;8.23;;;2.95;;
19828;SDS011;10075;50.924;4.396;2023-03-21T10:17:25;7.07;;;2.95;;
19828;SDS011;10075;50.924;4.396;2023-03-21T10:20:00;7.43;;;3.17;;
19828;SDS011;10075;50.924;4.396;2023-03-21T10:22:38;9.75;;;2.83;;
19828;SDS011;10075;50.924;4.396;2023-03-21T10:25:07;6.30;;;3.10;;
19828;SDS011;10075;50.924;4.396;2023-03-21T10:27:40;10.05;;;3.15;;
19828;SDS011;10075;50.924;4.396;2023-03-21T10:30:07;10.18;;;3.45;;
19828;SDS011;10075;50.924;4.396;2023-03-21T10:32:43;10.07;;;3.58;;
19828;SDS011;10075;50.924;4.396;2023-03-21T10:35:11;8.63;;;3.05;;
19828;SDS011;10075;50.924;4.396;2023-03-21T10:37:39;9.27;;;3.10;;
19828;SDS011;10075;50.924;4.396;2023-03-21T10:40:09;9.02;;;3.58;;
19828;SDS011;10075;50.924;4.396;2023-03-21T10:42:41;8.02;;;3.08;;
19828;SDS011;10075;50.924;4.396;2023-03-21T10:45:13;9.43;;;3.03;;
19828;SDS011;10075;50.924;4.396;2023-03-21T10:47:42;9.40;;;3.30;;
19828;SDS011;10075;50.924;4.396;2023-03-21T10:50:14;8.13;;;3.70;;
19828;SDS011;10075;50.924;4.396;2023-03-21T10:52:44;12.75;;;3.72;;
19828;SDS011;10075;50.924;4.396;2023-03-21T10:55:17;6.03;;;2.83;;
19828;SDS011;10075;50.924;4.396;2023-03-21T10:57:51;9.73;;;3.40;;
19828;SDS011;10075;50.924;4.396;2023-03-21T11:00:22;6.88;;;3.83;;
19828;SDS011;10075;50.924;4.396;2023-03-21T11:02:53;10.13;;;3.83;;
19828;SDS011;10075;50.924;4.396;2023-03-21T11:05:21;9.85;;;4.20;;
19828;SDS011;10075;50.924;4.396;2023-03-21T11:08:01;9.95;;;3.65;;
19828;SDS011;10075;50.924;4.396;2023-03-21T11:10:33;8.18;;;3.65;;
19828;SDS011;10075;50.924;4.396;2023-03-21T11:13:06;9.32;;;3.78;;
19828;SDS011;10075;50.924;4.396;2023-03-21T11:15:46;9.85;;;4.10;;
19828;SDS011;10075;50.924;4.396;2023-03-21T11:18:18;8.23;;;3.92;;
19828;SDS011;10075;50.924;4.396;2023-03-21T11:20:50;10.82;;;4.18;;
19828;SDS011;10075;50.924;4.396;2023-03-21T11:23:18;7.82;;;4.00;;
19828;SDS011;10075;50.924;4.396;2023-03-21T11:25:48;8.27;;;3.80;;
19828;SDS011;10075;50.924;4.396;2023-03-21T11:28:17;9.05;;;3.38;;
19828;SDS011;10075;50.924;4.396;2023-03-21T11:30:49;8.13;;;3.08;;
19828;SDS011;10075;50.924;4.396;2023-03-21T11:33:19;6.88;;;3.40;;
19828;SDS011;10075;50.924;4.396;2023-03-21T11:36:01;8.35;;;3.45;;
19828;SDS011;10075;50.924;4.396;2023-03-21T11:38:31;9.85;;;3.47;;
19828;SDS011;10075;50.924;4.396;2023-03-21T11:41:03;6.10;;;2.80;;
19828;SDS011;10075;50.924;4.396;2023-03-21T11:43:31;7.38;;;2.78;;
19828;SDS011;10075;50.924;4.396;2023-03-21T11:46:04;9.10;;;3.47;;
19828;SDS011;10075;50.924;4.396;2023-03-21T11:48:37;6.90;;;3.08;;
19828;SDS011;10075;50.924;4.396;2023-03-21T11:51:09;6.90;;;3.10;;
19828;SDS011;10075;50.924;4.396;2023-03-21T11:53:42;9.05;;;3.25;;
19828;SDS011;10075;50.924;4.396;2023-03-21T11:56:26;9.32;;;3.47;;
19828;SDS011;10075;50.924;4.396;2023-03-21T11:59:03;8.77;;;3.33;;
19828;SDS011;10075;50.924;4.396;2023-03-21T12:01:57;6.13;;;3.15;;
19828;SDS011;10075;50.924;4.396;2023-03-21T12:04:35;9.85;;;3.35;;
19828;SDS011;10075;50.924;4.396;2023-03-21T12:07:10;6.20;;;3.55;;
19828;SDS011;10075;50.924;4.396;2023-03-21T12:09:49;7.00;;;3.00;;
19828;SDS011;10075;50.924;4.396;2023-03-21T12:12:29;6.07;;;3.13;;
19828;SDS011;10075;50.924;4.396;2023-03-21T12:15:05;7.10;;;3.45;;
19828;SDS011;10075;50.924;4.396;2023-03-21T12:17:45;7.72;;;3.90;;
19828;SDS011;10075;50.924;4.396;2023-03-21T12:20:22;8.80;;;4.00;;
19828;SDS011;10075;50.924;4.396;2023-03-21T12:23:00;5.40;;;3.38;;
19828;SDS011;10075;50.924;4.396;2023-03-21T12:25:55;9.85;;;3.90;;
19828;SDS011;10075;50.924;4.396;2023-03-21T12:28:35;6.32;;;3.80;;
19828;SDS011;10075;50.924;4.396;2023-03-21T12:31:08;9.02;;;4.05;;
19828;SDS011;10075;50.924;4.396;2023-03-21T12:33:52;10.93;;;3.97;;
19828;SDS011;10075;50.924;4.396;2023-03-21T12:36:32;5.82;;;3.72;;
19828;SDS011;10075;50.924;4.396;2023-03-21T12:39:15;8.27;;;3.58;;
19828;SDS011;10075;50.924;4.396;2023-03-21T12:41:50;7.47;;;3.58;;
19828;SDS011;10075;50.924;4.396;2023-03-21T12:44:36;8.82;;;3.42;;
19828;SDS011;10075;50.924;4.396;2023-03-21T12:47:09;7.18;;;3.42;;
19828;SDS011;10075;50.924;4.396;2023-03-21T12:49:40;6.72;;;3.67;;
19828;SDS011;10075;50.924;4.396;2023-03-21T12:52:13;7.78;;;3.60;;
19828;SDS011;10075;50.924;4.396;2023-03-21T12:54:45;5.57;;;3.30;;
19828;SDS011;10075;50.924;4.396;2023-03-21T12:57:17;5.18;;;2.97;;
19828;SDS011;10075;50.924;4.396;2023-03-21T12:59:51;7.80;;;3.15;;
19828;SDS011;10075;50.924;4.396;2023-03-21T13:02:22;5.63;;;2.67;;
19828;SDS011;10075;50.924;4.396;2023-03-21T13:04:58;8.18;;;3.10;;
19828;SDS011;10075;50.924;4.396;2023-03-21T13:07:34;4.18;;;3.00;;
19828;SDS011;10075;50.924;4.396;2023-03-21T13:10:10;3.72;;;2.65;;
19828;SDS011;10075;50.924;4.396;2023-03-21T13:12:42;5.30;;;2.78;;
19828;SDS011;10075;50.924;4.396;2023-03-21T13:15:18;6.45;;;2.83;;
19828;SDS011;10075;50.924;4.396;2023-03-21T13:17:56;7.30;;;2.83;;
19828;SDS011;10075;50.924;4.396;2023-03-21T13:20:31;7.32;;;3.78;;
19828;SDS011;10075;50.924;4.396;2023-03-21T13:23:07;12.40;;;3.00;;
19828;SDS011;10075;50.924;4.396;2023-03-21T13:25:38;9.18;;;3.53;;
19828;SDS011;10075;50.924;4.396;2023-03-21T13:28:11;7.22;;;2.85;;
19828;SDS011;10075;50.924;4.396;2023-03-21T13:30:45;9.70;;;3.30;;
19828;SDS011;10075;50.924;4.396;2023-03-21T13:33:14;5.13;;;2.95;;
19828;SDS011;10075;50.924;4.396;2023-03-21T13:35:53;7.90;;;2.92;;
19828;SDS011;10075;50.924;4.396;2023-03-21T13:38:29;8.32;;;3.45;;
19828;SDS011;10075;50.924;4.396;2023-03-21T13:40:59;5.38;;;2.72;;
19828;SDS011;10075;50.924;4.396;2023-03-21T13:43:32;6.15;;;3.10;;
19828;SDS011;10075;50.924;4.396;2023-03-21T13:46:07;3.42;;;2.60;;
19828;SDS011;10075;50.924;4.396;2023-03-21T13:48:42;5.65;;;3.22;;
19828;SDS011;10075;50.924;4.396;2023-03-21T13:51:26;4.90;;;3.20;;
19828;SDS011;10075;50.924;4.396;2023-03-21T13:54:15;7.30;;;3.20;;
19828;SDS011;10075;50.924;4.396;2023-03-21T13:56:48;9.77;;;3.28;;
19828;SDS011;10075;50.924;4.396;2023-03-21T13:59:17;9.43;;;3.75;;
19828;SDS011;10075;50.924;4.396;2023-03-21T14:02:11;6.38;;;3.40;;
19828;SDS011;10075;50.924;4.396;2023-03-21T14:04:51;5.35;;;3.10;;
19828;SDS011;10075;50.924;4.396;2023-03-21T14:07:23;8.05;;;3.15;;
19828;SDS011;10075;50.924;4.396;2023-03-21T14:09:53;4.30;;;3.00;;
19828;SDS011;10075;50.924;4.396;2023-03-21T14:12:24;10.27;;;3.65;;
19828;SDS011;10075;50.924;4.396;2023-03-21T14:14:57;6.22;;;3.65;;
19828;SDS011;10075;50.924;4.396;2023-03-21T14:17:28;7.55;;;4.10;;
19828;SDS011;10075;50.924;4.396;2023-03-21T14:19:58;5.78;;;3.70;;
19828;SDS011;10075;50.924;4.396;2023-03-21T14:22:26;7.40;;;3.80;;
19828;SDS011;10075;50.924;4.396;2023-03-21T14:24:55;6.40;;;4.00;;
19828;SDS011;10075;50.924;4.396;2023-03-21T14:27:24;5.30;;;3.92;;
19828;SDS011;10075;50.924;4.396;2023-03-21T14:29:55;8.77;;;4.00;;
19828;SDS011;10075;50.924;4.396;2023-03-21T14:32:24;7.38;;;4.43;;
19828;SDS011;10075;50.924;4.396;2023-03-21T14:34:54;6.53;;;3.92;;
19828;SDS011;10075;50.924;4.396;2023-03-21T14:37:28;5.78;;;3.88;;
19828;SDS011;10075;50.924;4.396;2023-03-21T14:39:57;5.55;;;4.28;;
19828;SDS011;10075;50.924;4.396;2023-03-21T14:42:26;5.32;;;4.18;;
19828;SDS011;10075;50.924;4.396;2023-03-21T14:44:53;8.75;;;4.45;;
19828;SDS011;10075;50.924;4.396;2023-03-21T14:47:25;9.57;;;4.78;;
19828;SDS011;10075;50.924;4.396;2023-03-21T14:49:55;6.05;;;3.63;;
19828;SDS011;10075;50.924;4.396;2023-03-21T14:52:26;8.75;;;4.57;;
19828;SDS011;10075;50.924;4.396;2023-03-21T14:54:56;7.03;;;3.95;;
19828;SDS011;10075;50.924;4.396;2023-03-21T14:57:25;5.72;;;3.60;;
19828;SDS011;10075;50.924;4.396;2023-03-21T14:59:55;7.50;;;3.40;;
19828;SDS011;10075;50.924;4.396;2023-03-21T15:02:27;4.72;;;3.15;;
19828;SDS011;10075;50.924;4.396;2023-03-21T15:05:08;4.60;;;2.97;;
19828;SDS011;10075;50.924;4.396;2023-03-21T15:07:39;6.13;;;3.28;;
19828;SDS011;10075;50.924;4.396;2023-03-21T15:10:07;5.45;;;3.30;;
19828;SDS011;10075;50.924;4.396;2023-03-21T15:12:48;3.88;;;2.90;;
19828;SDS011;10075;50.924;4.396;2023-03-21T15:15:17;5.82;;;2.95;;
19828;SDS011;10075;50.924;4.396;2023-03-21T15:17:46;4.22;;;3.08;;